createdAt,value
2022-09-12T00:14:45.378Z,0.00
2022-09-12T00:20:18.513Z,0.00
2022-09-12T00:25:49.793Z,0.00
2022-09-12T00:36:50.606Z,0.00
2022-09-12T00:42:21.997Z,0.00
2022-09-12T00:47:53.600Z,0.00
2022-09-12T00:53:25.002Z,0.00
2022-09-12T00:58:56.520Z,0.00
2022-09-12T01:04:28.010Z,0.00
2022-09-12T01:09:59.362Z,0.00
2022-09-12T01:15:30.837Z,0.00
2022-09-12T01:21:02.635Z,0.00
2022-09-12T01:26:33.905Z,0.00
2022-09-12T01:32:05.715Z,0.00
2022-09-12T01:37:37.277Z,0.00
2022-09-12T01:43:08.647Z,0.00
2022-09-12T01:48:40.158Z,0.00
2022-09-12T01:54:11.953Z,0.00
2022-09-12T01:59:43.442Z,0.00
2022-09-12T02:05:14.929Z,0.00
2022-09-12T02:10:46.181Z,0.00
2022-09-12T02:16:18.012Z,0.00
2022-09-12T02:21:49.419Z,0.00
2022-09-12T02:27:21.017Z,0.00
2022-09-12T02:32:52.381Z,0.00
2022-09-12T02:38:23.855Z,0.00
2022-09-12T02:43:55.221Z,0.00
2022-09-12T02:49:26.565Z,0.00
2022-09-12T02:54:58.286Z,0.00
2022-09-12T03:00:29.713Z,0.00
2022-09-12T03:06:00.988Z,0.00
2022-09-12T03:11:32.358Z,0.00
2022-09-12T03:17:03.639Z,0.00
2022-09-12T03:22:35.147Z,0.00
2022-09-12T03:33:35.919Z,0.00
2022-09-12T03:39:07.187Z,0.00
2022-09-12T03:44:38.635Z,0.00
2022-09-12T03:50:09.995Z,0.00
2022-09-12T03:55:41.772Z,0.00
2022-09-12T04:01:13.178Z,0.00
2022-09-12T04:06:44.495Z,0.00
2022-09-12T04:17:45.357Z,2.00
2022-09-12T04:23:16.825Z,8.00
2022-09-12T04:28:48.473Z,20.00
2022-09-12T04:34:20.017Z,45.00
2022-09-12T04:39:51.741Z,93.00
2022-09-12T04:45:23.299Z,163.00
2022-09-12T04:50:54.990Z,272.00
2022-09-12T05:01:55.816Z,1067.00
2022-09-12T05:07:27.506Z,989.00
2022-09-12T05:12:58.888Z,304.00
2022-09-12T05:18:30.576Z,40.00
2022-09-12T05:24:01.981Z,0.00
2022-09-12T05:29:33.293Z,0.00
2022-09-12T05:35:05.000Z,0.00
2022-09-12T05:40:36.874Z,0.00
2022-09-12T05:46:08.607Z,0.00
2022-09-12T05:51:40.397Z,0.00
2022-09-12T05:57:12.083Z,0.00
2022-09-12T06:02:43.572Z,0.00
2022-09-12T06:08:15.245Z,0.00
2022-09-12T06:13:46.682Z,0.00
2022-09-12T06:19:18.364Z,0.00
2022-09-12T06:24:50.817Z,0.00
2022-09-12T06:30:25.356Z,0.00
2022-09-12T06:35:53.708Z,0.00
2022-09-12T06:41:25.112Z,0.00
2022-09-12T06:46:56.466Z,0.00
2022-09-12T06:52:28.251Z,0.00
2022-09-12T06:54:39.907Z,0.00
2022-09-12T07:00:11.103Z,0.00
2022-09-12T07:05:42.519Z,0.00
2022-09-12T07:11:13.747Z,0.00
2022-09-12T07:16:45.280Z,0.00
2022-09-12T07:27:50.595Z,0.00
2022-09-12T07:33:18.953Z,0.00
2022-09-12T07:38:52.105Z,0.00
2022-09-12T07:44:22.125Z,0.00
2022-09-12T07:49:53.713Z,0.00
2022-09-12T07:55:25.126Z,0.00
2022-09-12T08:00:56.927Z,0.00
2022-09-12T08:06:28.906Z,0.00
2022-09-12T08:12:00.502Z,0.00
2022-09-12T08:17:31.787Z,0.00
2022-09-12T08:23:03.051Z,0.00
2022-09-12T08:28:34.804Z,0.00
2022-09-12T08:34:06.203Z,0.00
2022-09-12T08:45:07.214Z,0.00
2022-09-12T08:50:38.761Z,2145.00
2022-09-12T08:56:10.214Z,2346.00
2022-09-12T09:01:41.966Z,2454.00
2022-09-12T09:07:13.750Z,2486.00
2022-09-12T09:12:45.478Z,2552.00
2022-09-12T09:18:16.733Z,2624.00
2022-09-12T09:23:48.068Z,2664.00
2022-09-12T09:29:19.297Z,2741.00
2022-09-12T09:34:50.612Z,2748.00
2022-09-12T09:40:22.271Z,2823.00
2022-09-12T09:45:53.660Z,2877.00
2022-09-12T09:51:25.090Z,2948.00
2022-09-12T09:56:56.385Z,2970.00
2022-09-12T10:02:27.672Z,2970.00
2022-09-12T10:07:59.278Z,3004.00
2022-09-12T10:13:31.031Z,3006.00
2022-09-12T10:19:02.795Z,2962.00
2022-09-12T10:24:33.956Z,2928.00
2022-09-12T10:30:05.346Z,2856.00
2022-09-12T10:35:36.678Z,2795.00
2022-09-12T10:41:08.380Z,2829.00
2022-09-12T10:46:39.761Z,2809.00
2022-09-12T10:52:11.185Z,2787.00
2022-09-12T10:57:42.455Z,2766.00
2022-09-12T11:03:13.824Z,2681.00
2022-09-12T11:08:45.482Z,2673.00
2022-09-12T11:14:16.707Z,2660.00
2022-09-12T11:19:48.014Z,2609.00
2022-09-12T11:25:19.501Z,2619.00
2022-09-12T11:30:50.807Z,2611.00
2022-09-12T11:36:22.020Z,2559.00
2022-09-12T11:41:53.367Z,2540.00
2022-09-12T11:47:24.704Z,2556.00
2022-09-12T12:03:55.350Z,2526.00
2022-09-12T12:09:26.972Z,2590.00
2022-09-12T12:17:19.115Z,2603.00
2022-09-12T12:22:50.789Z,2678.00
2022-09-12T12:28:22.739Z,2612.00
2022-09-12T12:33:54.238Z,2618.00
2022-09-12T12:44:59.277Z,2270.00
2022-09-12T12:50:30.663Z,2241.00
2022-09-12T12:56:02.538Z,1954.00
2022-09-12T13:01:34.286Z,1916.00
2022-09-12T13:07:08.131Z,2350.00
2022-09-12T13:12:37.235Z,1648.00
2022-09-12T13:18:08.803Z,1565.00
2022-09-12T13:23:40.550Z,1822.00
2022-09-12T13:29:12.264Z,1545.00
2022-09-12T13:34:43.851Z,1759.00
2022-09-12T13:40:15.202Z,1692.00
2022-09-12T13:45:47.230Z,1802.00
2022-09-12T13:51:18.927Z,1826.00
2022-09-12T13:56:50.607Z,1927.00
2022-09-12T14:02:21.918Z,2132.00
2022-09-12T14:07:53.279Z,2272.00
2022-09-12T14:13:24.814Z,2140.00
2022-09-12T14:18:56.111Z,2200.00
2022-09-12T14:24:27.588Z,2536.00
2022-09-12T14:29:58.731Z,2588.00
2022-09-12T14:37:50.346Z,2523.00
2022-09-12T14:43:21.149Z,2436.00
2022-09-12T14:48:52.415Z,2277.00
2022-09-12T14:54:23.891Z,2245.00
2022-09-12T14:59:55.284Z,2276.00
2022-09-12T15:05:27.197Z,2377.00
2022-09-12T15:10:58.818Z,2528.00
2022-09-12T15:16:30.468Z,2519.00
2022-09-12T15:22:01.632Z,2591.00
2022-09-12T15:27:33.042Z,2105.00
2022-09-12T15:33:04.614Z,2224.00
2022-09-12T15:38:36.360Z,2581.00
2022-09-12T15:44:08.184Z,2265.00
2022-09-12T15:49:39.825Z,2424.00
2022-09-12T15:55:11.127Z,2511.00
2022-09-12T16:00:42.522Z,2343.00
2022-09-12T16:06:13.997Z,2147.00
2022-09-12T16:11:45.750Z,1926.00
2022-09-12T16:17:17.518Z,1760.00
2022-09-12T16:22:49.311Z,1465.00
2022-09-12T16:28:20.783Z,1465.00
2022-09-12T16:33:52.331Z,1354.00
2022-09-12T16:39:23.870Z,1247.00
2022-09-12T16:44:56.013Z,1140.00
2022-09-12T16:50:28.028Z,1035.00
2022-09-12T16:55:59.745Z,927.00
2022-09-12T17:01:31.400Z,811.00
2022-09-12T17:07:02.768Z,680.00
2022-09-12T17:12:34.259Z,547.00
2022-09-12T17:18:05.897Z,400.00
2022-09-12T17:23:37.324Z,258.00
2022-09-12T17:29:08.819Z,165.00
2022-09-12T17:34:40.333Z,101.00
2022-09-12T17:40:12.047Z,63.00
2022-09-12T17:45:44.043Z,23.00
2022-09-12T17:51:15.631Z,7.00
2022-09-12T17:56:47.326Z,2.00
2022-09-12T18:02:18.966Z,1.00
2022-09-12T18:07:50.145Z,0.00
2022-09-12T18:13:22.253Z,0.00
2022-09-12T18:18:52.677Z,0.00
2022-09-12T18:24:23.953Z,0.00
2022-09-12T18:30:17.520Z,0.00
2022-09-12T18:35:27.085Z,0.00
2022-09-12T18:40:58.760Z,0.00
2022-09-12T18:46:30.836Z,0.00
2022-09-12T18:52:02.044Z,0.00
2022-09-12T18:57:33.550Z,0.00
2022-09-12T19:05:26.296Z,1.00
2022-09-12T19:10:58.703Z,1.00
2022-09-12T19:16:30.026Z,1.00
2022-09-12T19:22:01.316Z,1.00
2022-09-12T19:27:32.746Z,1.00
2022-09-12T19:33:04.093Z,1.00
2022-09-12T19:44:08.222Z,0.00
2022-09-12T19:57:31.290Z,0.00
2022-09-12T20:03:02.888Z,0.00
2022-09-12T20:14:05.987Z,0.00
2022-09-12T20:19:37.596Z,0.00
2022-09-12T20:25:08.925Z,0.00
2022-09-12T20:30:40.344Z,0.00
2022-09-12T20:36:11.622Z,0.00
2022-09-12T20:41:43.433Z,0.00
2022-09-12T20:47:15.038Z,0.00
2022-09-12T20:52:46.689Z,0.00
2022-09-12T20:58:18.303Z,0.00
2022-09-12T21:03:50.002Z,0.00
2022-09-12T21:09:21.883Z,0.00
2022-09-12T21:14:53.645Z,0.00
2022-09-12T21:20:25.348Z,0.00
2022-09-12T21:25:57.180Z,0.00
2022-09-12T21:31:28.917Z,0.00
2022-09-12T21:37:02.460Z,0.00
2022-09-12T21:42:33.949Z,0.00
2022-09-12T21:48:05.718Z,0.00
2022-09-12T21:53:37.360Z,0.00
2022-09-12T21:59:08.832Z,0.00
2022-09-12T22:04:40.534Z,0.00
2022-09-12T22:10:12.401Z,0.00
2022-09-12T22:15:43.889Z,0.00
2022-09-12T22:21:15.153Z,0.00
2022-09-12T22:26:46.942Z,0.00
2022-09-12T22:37:50.349Z,0.00
2022-09-12T22:43:21.687Z,0.00
2022-09-12T22:48:53.162Z,0.00
2022-09-12T22:54:25.225Z,0.00
2022-09-12T22:59:56.452Z,0.00
2022-09-12T23:05:27.951Z,0.00
2022-09-12T23:10:59.479Z,0.00
2022-09-12T23:16:30.981Z,0.00
2022-09-12T23:22:02.295Z,0.00
2022-09-12T23:27:33.482Z,0.00
2022-09-12T23:33:05.227Z,0.00
2022-09-12T23:38:36.734Z,0.00
2022-09-12T23:44:07.876Z,0.00
2022-09-12T23:49:39.448Z,0.00
2022-09-12T23:55:11.380Z,0.00
